Time;durP1;ratioP1;P1;durP2;ratioP2;P2;SDS_P1;SDS_P2;PMS_P1;PMS_P2;Temp;Humidity;BMP_temperature;BMP_pressure;BME280_temperature;BME280_humidity;BME280_pressure;Samples;Min_cycle;Max_cycle;Signal;HPM_P1;HPM_P2
2022/10/17 00:00:39;;;;;;;3.00;1.90;;;16.50;99.90;;;16.76;100.00;101167.38;5224733;28;20443;-58
2022/10/17 00:03:13;;;;;;;3.05;2.15;;;16.50;99.90;;;16.75;100.00;101176.13;5224321;28;20045;-59
2022/10/17 00:05:48;;;;;;;3.45;2.00;;;16.40;99.90;;;16.76;100.00;101177.91;5224277;28;20056;-58
2022/10/17 00:08:20;;;;;;;2.35;1.77;;;16.40;99.90;;;16.74;100.00;101175.25;5224665;28;20049;-59
2022/10/17 00:10:57;;;;;;;2.55;1.90;;;16.50;99.90;;;16.74;100.00;101183.13;5224792;28;20053;-59
2022/10/17 00:13:31;;;;;;;3.00;1.90;;;16.40;99.90;;;16.73;100.00;101185.75;5224464;28;20672;-57
2022/10/17 00:16:03;;;;;;;3.83;2.00;;;16.40;99.90;;;16.73;100.00;101185.75;5224367;28;20049;-59
2022/10/17 00:18:35;;;;;;;2.17;1.85;;;16.40;99.90;;;16.71;100.00;101184.84;5224313;28;20044;-57
2022/10/17 00:21:16;;;;;;;3.38;1.67;;;16.40;99.90;;;16.69;100.00;101176.00;5224212;28;20037;-58
2022/10/17 00:23:48;;;;;;;4.03;2.90;;;16.40;99.90;;;16.68;100.00;101179.47;5224609;28;20045;-57
2022/10/17 00:26:21;;;;;;;3.70;2.33;;;16.40;99.90;;;16.70;100.00;101177.81;5224158;28;20063;-58
2022/10/17 00:28:54;;;;;;;4.45;2.63;;;16.40;99.90;;;16.73;100.00;101183.13;5224498;28;20049;-58
2022/10/17 00:31:26;;;;;;;4.07;2.33;;;16.50;99.90;;;16.74;100.00;101185.75;5223242;28;20053;-58
2022/10/17 00:33:59;;;;;;;3.75;2.17;;;16.50;99.90;;;16.74;100.00;101179.63;5224403;28;20041;-57
2022/10/17 00:36:34;;;;;;;2.95;2.00;;;16.50;99.90;;;16.71;100.00;101191.00;5224193;28;20494;-58
2022/10/17 00:39:06;;;;;;;3.75;2.28;;;16.50;99.90;;;16.68;100.00;101183.00;5223990;28;20037;-57
2022/10/17 00:41:38;;;;;;;2.75;2.05;;;16.40;99.90;;;16.64;100.00;101189.09;5223068;28;20044;-57
2022/10/17 00:45:07;;;;;;;3.20;2.45;;;16.40;99.90;;;16.61;100.00;101180.25;5222887;28;20527;-57
2022/10/17 00:47:39;;;;;;;4.43;2.50;;;16.30;99.90;;;16.64;100.00;101177.69;5222913;28;20053;-59
2022/10/17 00:50:13;;;;;;;2.90;2.10;;;16.40;99.90;;;16.66;100.00;101186.47;5222720;28;20040;-57
2022/10/17 00:52:47;;;;;;;4.18;2.20;;;16.40;99.90;;;16.67;100.00;101182.97;5222959;28;20103;-57
2022/10/17 00:55:28;;;;;;;3.08;2.05;;;16.40;99.90;;;16.70;100.00;101177.81;5224360;28;20053;-60
2022/10/17 00:58:03;;;;;;;3.20;2.08;;;16.40;99.90;;;16.72;100.00;101176.09;5226522;28;20045;-58
2022/10/17 01:00:37;;;;;;;3.40;2.13;;;16.40;99.90;;;16.74;100.00;101176.97;5226608;28;20049;-58
2022/10/17 01:03:09;;;;;;;3.80;2.42;;;16.40;99.90;;;16.75;100.00;101173.50;5226478;28;20052;-58
2022/10/17 01:05:42;;;;;;;3.90;2.45;;;16.50;99.90;;;16.77;100.00;101184.94;5226119;28;20056;-59
2022/10/17 01:08:14;;;;;;;3.92;2.55;;;16.50;99.90;;;16.79;100.00;101188.47;5226264;28;20041;-57
2022/10/17 01:10:59;;;;;;;3.47;2.70;;;16.50;99.90;;;16.82;100.00;101183.25;5227487;28;20036;-59
2022/10/17 01:13:39;;;;;;;4.82;3.20;;;16.50;99.90;;;16.87;100.00;101186.84;5227597;28;20041;-59
2022/10/17 01:16:19;;;;;;;4.68;2.83;;;16.60;99.90;;;16.91;100.00;101177.25;5226380;28;20045;-57
2022/10/17 01:19:02;;;;;;;5.40;2.85;;;16.60;99.90;;;16.93;100.00;101184.31;5227491;28;20124;-58
2022/10/17 01:21:45;;;;;;;5.22;2.83;;;16.70;99.90;;;16.99;100.00;101191.41;5225792;28;20037;-59
2022/10/17 01:24:55;;;;;;;4.80;2.72;;;16.70;99.90;;;17.03;100.00;101186.22;5225896;28;20049;-58
2022/10/17 01:28:01;;;;;;;4.53;2.55;;;16.80;99.90;;;17.08;100.00;101187.19;5210936;28;20044;-58
2022/10/17 01:31:14;;;;;;;4.32;2.78;;;16.80;99.90;;;17.11;100.00;101188.09;5225951;28;20140;-58
2022/10/17 01:33:59;;;;;;;4.68;2.70;;;16.90;99.90;;;17.16;100.00;101178.50;5218649;28;20056;-60
2022/10/17 01:36:41;;;;;;;5.93;2.88;;;16.90;99.90;;;17.15;100.00;101179.34;5225933;28;20576;-58
2022/10/17 01:39:24;;;;;;;5.88;2.60;;;16.90;99.90;;;17.18;100.00;101171.50;5225609;28;20148;-57
2022/10/17 01:42:03;;;;;;;4.07;2.75;;;17.00;99.90;;;17.19;100.00;101168.88;5225552;28;20405;-57
2022/10/17 01:44:42;;;;;;;3.92;2.78;;;17.00;99.90;;;17.22;100.00;101171.56;5226754;28;20033;-57
2022/10/17 01:47:20;;;;;;;4.85;2.92;;;17.00;99.90;;;17.22;100.00;101178.59;5227236;28;20094;-59
2022/10/17 01:49:57;;;;;;;3.75;2.47;;;17.00;99.90;;;17.25;100.00;101173.34;5225341;28;20045;-57
2022/10/17 01:52:37;;;;;;;3.13;2.70;;;17.00;99.90;;;17.26;100.00;101177.75;5225759;28;20448;-57
2022/10/17 01:55:15;;;;;;;3.47;2.13;;;17.00;99.90;;;17.25;100.00;101175.97;5225430;28;20140;-57
2022/10/17 01:57:51;;;;;;;3.70;2.80;;;17.00;99.90;;;17.25;100.00;101175.97;5226778;28;20412;-58
2022/10/17 02:00:27;;;;;;;3.38;2.70;;;17.00;99.90;;;17.24;100.00;101172.47;5226723;28;20433;-58
2022/10/17 02:03:04;;;;;;;4.53;2.90;;;17.00;99.90;;;17.25;100.00;101178.63;5225728;28;20425;-59
2022/10/17 02:05:39;;;;;;;4.07;2.33;;;17.00;99.90;;;17.23;100.00;101170.69;5226529;28;20544;-59
2022/10/17 02:08:12;;;;;;;3.75;2.50;;;17.00;99.90;;;17.25;100.00;101173.34;5225057;28;20045;-59
2022/10/17 02:10:52;;;;;;;4.53;2.50;;;17.00;99.90;;;17.23;100.00;101170.69;5224953;28;20045;-58
2022/10/17 02:13:37;;;;;;;3.58;2.38;;;17.00;99.90;;;17.23;100.00;101169.81;5225305;28;20052;-58
2022/10/17 02:16:20;;;;;;;4.25;2.70;;;17.00;99.90;;;17.23;100.00;101169.81;5224964;28;20418;-57
2022/10/17 02:19:15;;;;;;;3.22;2.30;;;16.90;99.90;;;17.18;100.00;101169.75;5226334;28;20417;-58
2022/10/17 02:21:57;;;;;;;3.65;2.10;;;17.00;99.90;;;17.16;100.00;101162.69;5226164;28;20684;-57
2022/10/17 02:24:36;;;;;;;3.85;2.25;;;16.90;99.90;;;17.15;100.00;101171.44;5226433;28;20052;-58
2022/10/17 02:27:16;;;;;;;3.10;2.13;;;16.90;99.90;;;17.13;100.00;101166.16;5225034;28;20515;-58
2022/10/17 02:29:53;;;;;;;5.18;2.63;;;16.90;99.90;;;17.12;100.00;101166.16;5224721;28;20037;-59
2022/10/17 02:32:36;;;;;;;3.35;2.40;;;16.80;99.90;;;17.12;100.00;101166.16;5224897;28;20048;-58
2022/10/17 02:35:14;;;;;;;3.72;2.00;;;16.80;99.90;;;17.12;100.00;101161.75;5224702;28;20048;-58
2022/10/17 02:37:48;;;;;;;5.00;2.63;;;16.90;99.90;;;17.12;100.00;101161.75;5225892;28;20090;-58
2022/10/17 02:40:24;;;;;;;3.83;2.88;;;16.80;99.90;;;17.12;100.00;101166.16;5224802;28;20444;-58
2022/10/17 02:42:59;;;;;;;4.50;2.28;;;16.80;99.90;;;17.12;100.00;101166.16;5224540;28;20041;-58
2022/10/17 02:45:36;;;;;;;4.07;2.08;;;16.90;99.90;;;17.12;100.00;101166.16;5224568;28;20095;-57
2022/10/17 02:48:16;;;;;;;3.83;2.30;;;16.90;99.90;;;17.12;100.00;101172.28;5225764;28;20519;-58
2022/10/17 02:51:01;;;;;;;4.43;2.08;;;16.90;99.90;;;17.12;100.00;101166.16;5225747;28;20095;-60
2022/10/17 02:53:39;;;;;;;5.88;2.28;;;16.90;99.90;;;17.14;100.00;101167.03;5224277;28;20714;-59
2022/10/17 02:56:19;;;;;;;4.78;2.40;;;16.90;99.90;;;17.15;100.00;101167.09;5224615;28;20041;-59
2022/10/17 02:58:56;;;;;;;6.18;2.50;;;16.90;99.90;;;17.16;100.00;101168.84;5225716;28;20527;-58
2022/10/17 03:01:30;;;;;;;4.78;2.80;;;16.90;99.90;;;17.18;100.00;101171.50;5224098;28;20044;-58
2022/10/17 03:04:10;;;;;;;4.20;2.40;;;16.90;99.90;;;17.19;100.00;101168.88;5224333;28;20053;-58
2022/10/17 03:06:46;;;;;;;4.30;2.67;;;16.90;99.90;;;17.22;100.00;101162.78;5226574;28;20049;-58
2022/10/17 03:09:18;;;;;;;4.43;3.03;;;17.00;99.90;;;17.24;100.00;101161.03;5226950;28;20140;-58
2022/10/17 03:11:50;;;;;;;3.92;2.90;;;17.00;99.90;;;17.25;100.00;101173.34;5225191;28;20045;-58
2022/10/17 03:14:24;;;;;;;4.63;2.75;;;17.00;99.90;;;17.28;100.00;101168.13;5225378;28;20040;-58
2022/10/17 03:16:56;;;;;;;4.68;3.22;;;17.00;99.90;;;17.32;100.00;101169.94;5226507;28;20036;-57
2022/10/17 03:19:30;;;;;;;5.10;3.63;;;17.10;99.90;;;17.33;100.00;101163.78;5224804;28;20445;-57
2022/10/17 03:22:04;;;;;;;10.38;7.05;;;17.10;99.90;;;17.37;100.00;101176.16;5225002;28;20051;-58
2022/10/17 03:24:38;;;;;;;8.73;6.03;;;17.10;99.90;;;17.37;100.00;101173.53;5225034;28;20417;-58
2022/10/17 03:27:11;;;;;;;13.98;6.78;;;17.10;99.90;;;17.36;100.00;101177.03;5223774;28;20523;-58
2022/10/17 03:29:43;;;;;;;13.77;6.82;;;17.10;99.90;;;17.38;100.00;101170.00;5223765;28;20049;-58
2022/10/17 03:32:16;;;;;;;10.68;5.80;;;17.10;99.90;;;17.40;100.00;101177.94;5223518;28;20498;-58
2022/10/17 03:34:48;;;;;;;8.55;5.03;;;17.20;99.90;;;17.40;100.00;101172.66;5223577;28;20045;-57
2022/10/17 03:37:22;;;;;;;9.55;4.70;;;17.20;99.90;;;17.39;100.00;101182.31;5224770;28;20037;-57
2022/10/17 03:39:55;;;;;;;6.25;4.25;;;17.20;99.90;;;17.41;100.00;101171.78;5224669;28;20048;-58
2022/10/17 03:42:27;;;;;;;8.00;4.88;;;17.10;99.90;;;17.41;100.00;101175.34;5223270;28;20464;-59
2022/10/17 03:44:59;;;;;;;9.63;5.60;;;17.20;99.90;;;17.41;100.00;101179.69;5224664;28;20519;-58
2022/10/17 03:47:31;;;;;;;8.82;4.50;;;17.20;99.90;;;17.41;100.00;101183.25;5223386;28;20132;-59
2022/10/17 03:50:04;;;;;;;12.25;6.70;;;17.20;99.90;;;17.40;100.00;101178.81;5223287;28;20136;-58
2022/10/17 03:52:41;;;;;;;12.98;6.55;;;17.10;99.90;;;17.38;100.00;101183.19;5223049;28;20128;-57
2022/10/17 03:55:14;;;;;;;8.93;5.53;;;17.10;99.90;;;17.38;100.00;101180.56;5223557;28;20049;-58
2022/10/17 03:57:46;;;;;;;8.85;5.75;;;17.10;99.90;;;17.38;100.00;101182.31;5223178;28;20044;-57
2022/10/17 04:00:20;;;;;;;8.90;4.97;;;17.10;99.90;;;17.36;100.00;101187.56;5223017;28;20045;-58
2022/10/17 04:02:59;;;;;;;9.32;5.35;;;17.10;99.90;;;17.36;100.00;101195.47;5223100;28;20053;-58
2022/10/17 04:05:32;;;;;;;7.75;4.28;;;17.10;99.90;;;17.36;100.00;101203.38;5223132;28;20060;-58
2022/10/17 04:08:05;;;;;;;8.13;4.03;;;17.10;99.90;;;17.35;100.00;101206.88;5223220;28;20044;-59
2022/10/17 04:11:08;;;;;;;9.63;5.00;;;17.10;99.90;;;17.34;100.00;101210.34;5224305;28;20072;-59
2022/10/17 04:13:40;;;;;;;7.65;4.57;;;17.10;99.90;;;17.32;100.00;101206.81;5223160;28;20048;-57
2022/10/17 04:16:16;;;;;;;10.68;5.53;;;17.00;99.90;;;17.31;100.00;101212.97;5223277;28;20045;-59
2022/10/17 04:19:13;;;;;;;10.57;5.95;;;17.10;99.90;;;17.28;100.00;101215.56;5224291;28;20123;-57
2022/10/17 04:21:49;;;;;;;10.07;4.70;;;17.00;99.90;;;17.25;100.00;101215.50;5222851;28;20037;-60
2022/10/17 04:24:24;;;;;;;6.70;3.80;;;17.00;99.90;;;17.21;100.00;101211.03;5223009;28;20041;-57
2022/10/17 04:27:16;;;;;;;7.22;4.05;;;17.00;99.90;;;17.17;100.00;101209.25;5223100;28;20045;-59
2022/10/17 04:29:50;;;;;;;6.22;3.20;;;16.90;99.90;;;17.09;100.00;101207.38;5223057;28;20056;-60
2022/10/17 04:32:27;;;;;;;5.57;2.85;;;16.80;99.90;;;17.04;100.00;101195.00;5224717;28;20052;-58
2022/10/17 04:35:14;;;;;;;5.07;2.70;;;16.80;99.90;;;16.99;100.00;101207.22;5226980;28;20059;-59
2022/10/17 04:37:51;;;;;;;4.43;2.83;;;16.70;99.90;;;16.95;100.00;101211.56;5227401;28;20076;-58
2022/10/17 04:40:26;;;;;;;4.75;2.70;;;16.70;99.90;;;16.88;100.00;101229.84;5226958;28;20079;-59
2022/10/17 04:42:59;;;;;;;4.13;2.58;;;16.60;99.90;;;16.80;100.00;101224.47;5226764;28;20049;-59
2022/10/17 04:45:38;;;;;;;3.97;2.10;;;16.60;99.90;;;16.73;100.00;101225.25;5226826;28;20502;-58
2022/10/17 04:48:11;;;;;;;3.72;2.17;;;16.50;99.90;;;16.66;100.00;101220.69;5227034;28;20132;-57
2022/10/17 04:50:53;;;;;;;3.15;2.05;;;16.40;99.90;;;16.59;100.00;101218.81;5258242;22;20051;-57
2022/10/17 04:53:43;;;;;;;3.20;1.98;;;16.30;99.90;;;16.53;100.00;101232.75;5245906;28;20048;-59
2022/10/17 04:56:19;;;;;;;3.97;2.10;;;16.30;99.90;;;16.47;100.00;101244.06;5247238;28;20139;-56
2022/10/17 04:58:52;;;;;;;3.85;2.65;;;16.20;99.90;;;16.41;100.00;101243.94;5230404;28;20471;-58
2022/10/17 05:01:25;;;;;;;2.85;2.03;;;16.20;99.90;;;16.36;100.00;101234.19;5229666;28;20135;-59
2022/10/17 05:03:58;;;;;;;3.80;2.35;;;16.10;99.90;;;16.32;100.00;101232.38;5230383;28;20602;-57
2022/10/17 05:06:32;;;;;;;3.67;2.15;;;16.10;99.90;;;16.31;100.00;101230.63;5230279;28;20045;-58
2022/10/17 05:09:39;;;;;;;4.80;2.80;;;16.00;99.90;;;16.27;100.00;101232.28;5225648;28;20056;-57
2022/10/17 05:12:13;;;;;;;4.72;2.25;;;16.00;99.90;;;16.26;100.00;101239.31;5230051;28;20049;-59
2022/10/17 05:14:48;;;;;;;3.75;2.03;;;16.00;99.90;;;16.28;100.00;101242.84;5230195;28;20040;-58
2022/10/17 05:17:20;;;;;;;7.00;3.25;;;16.00;99.90;;;16.31;100.00;101230.63;5230056;28;20463;-57
2022/10/17 05:19:53;;;;;;;4.72;2.80;;;16.10;99.90;;;16.34;100.00;101231.53;5229581;28;20041;-59
2022/10/17 05:22:25;;;;;;;6.03;3.15;;;16.10;99.90;;;16.40;100.00;101231.66;5229787;28;20106;-58
2022/10/17 05:24:57;;;;;;;4.30;2.80;;;16.20;99.90;;;16.44;100.00;101233.50;5247839;28;20040;-59
2022/10/17 05:27:31;;;;;;;4.63;2.70;;;16.20;99.90;;;16.50;100.00;101241.50;5238747;28;22244;-58
2022/10/17 05:30:03;;;;;;;4.47;2.40;;;16.30;99.90;;;16.57;100.00;101252.16;5223480;28;20049;-57
2022/10/17 05:32:39;;;;;;;4.13;2.42;;;16.30;99.90;;;16.61;100.00;101260.09;5226065;28;20059;-59
2022/10/17 05:35:11;;;;;;;5.70;2.78;;;16.40;99.90;;;16.66;100.00;101268.06;5240352;28;20509;-57
2022/10/17 05:37:44;;;;;;;5.05;2.55;;;16.40;99.90;;;16.69;100.00;101249.69;5246113;28;20056;-59
2022/10/17 05:40:16;;;;;;;3.85;2.22;;;16.50;99.90;;;16.71;100.00;101248.03;5245500;28;20049;-56
2022/10/17 05:42:50;;;;;;;3.78;2.40;;;16.50;99.90;;;16.71;100.00;101248.03;5245724;28;20044;-57
2022/10/17 05:45:24;;;;;;;5.53;3.33;;;16.50;99.90;;;16.70;100.00;101246.25;5245610;28;20048;-59
2022/10/17 05:47:56;;;;;;;6.22;3.15;;;16.50;99.90;;;16.69;100.00;101254.97;5227464;28;20415;-60
2022/10/17 05:50:28;;;;;;;4.15;2.30;;;16.50;99.90;;;16.70;100.00;101254.16;5229121;28;20568;-57
2022/10/17 05:53:21;;;;;;;7.18;2.80;;;16.50;99.90;;;16.72;100.00;101244.53;5229487;28;20048;-57
2022/10/17 05:55:57;;;;;;;;;;;16.50;99.90;;;16.70;100.00;101251.53;5229540;28;20056;-57
2022/10/17 05:58:32;;;;;;;6.03;3.03;;;16.50;99.90;;;16.68;100.00;101243.53;5246985;28;19950;-57
2022/10/17 06:01:06;;;;;;;4.57;2.80;;;16.50;99.90;;;16.68;100.00;101237.41;5248176;28;20088;-59
2022/10/17 06:03:38;;;;;;;5.22;2.80;;;16.50;99.90;;;16.70;100.00;101241.00;5247182;28;20053;-58
2022/10/17 06:06:13;;;;;;;3.25;2.30;;;16.50;99.90;;;16.72;100.00;101240.16;5230510;28;20045;-61
2022/10/17 06:08:48;;;;;;;4.32;2.58;;;16.50;99.90;;;16.74;100.00;101242.78;5247088;28;20051;-62
2022/10/17 06:11:26;;;;;;;4.28;2.47;;;16.50;99.90;;;16.77;100.00;101245.50;5229843;28;20529;-61
2022/10/17 06:13:59;;;;;;;3.75;2.50;;;16.50;99.90;;;16.82;100.00;101251.69;5248030;28;20045;-59
2022/10/17 06:16:33;;;;;;;5.90;2.75;;;16.60;99.90;;;16.87;100.00;101255.31;5247138;28;20045;-61
2022/10/17 06:19:05;;;;;;;4.07;2.33;;;16.60;99.90;;;16.93;100.00;101265.06;5248249;28;20036;-60
2022/10/17 06:21:37;;;;;;;4.60;2.30;;;16.70;99.90;;;16.98;100.00;101272.19;5228384;28;20044;-61
2022/10/17 06:24:23;;;;;;;5.20;3.03;;;16.70;99.90;;;17.01;100.00;101269.56;5245619;28;20637;-58
2022/10/17 06:26:57;;;;;;;4.72;2.25;;;16.80;99.90;;;17.05;100.00;101271.41;5228900;28;20702;-60
2022/10/17 06:29:31;;;;;;;5.93;2.55;;;16.80;99.90;;;17.08;100.00;101270.56;5228654;28;20071;-62
2022/10/17 06:32:04;;;;;;;5.93;2.50;;;16.80;99.90;;;17.14;100.00;101278.56;5246186;28;20047;-60
2022/10/17 06:34:37;;;;;;;3.10;2.40;;;16.90;99.90;;;17.21;100.00;101290.06;5228891;28;20054;-61
2022/10/17 06:37:10;;;;;;;5.22;2.83;;;17.00;99.90;;;17.29;100.00;101291.09;5246658;28;20036;-61
2022/10/17 06:39:44;;;;;;;5.88;3.00;;;17.00;99.90;;;17.34;100.00;101294.66;5244897;28;20094;-60
2022/10/17 06:42:18;;;;;;;3.80;2.60;;;17.10;99.90;;;17.40;100.00;101293.88;5246292;28;20684;-61
2022/10/17 06:44:55;;;;;;;4.35;2.40;;;17.10;99.90;;;17.43;100.00;101289.56;5228454;28;20047;-61
2022/10/17 06:47:27;;;;;;;4.18;2.67;;;17.20;99.90;;;17.49;100.00;101300.19;5246136;28;20045;-59
2022/10/17 06:50:04;;;;;;;5.63;2.78;;;17.20;99.90;;;17.54;100.00;101308.13;5244305;28;20123;-59
2022/10/17 06:52:42;;;;;;;8.05;2.83;;;17.30;99.90;;;17.63;100.00;101319.72;5244805;28;20135;-61
2022/10/17 06:55:32;;;;;;;4.35;2.47;;;17.30;99.90;;;17.76;100.00;101317.28;5245554;28;20137;-59
2022/10/17 06:58:19;;;;;;;4.80;2.50;;;17.40;99.90;;;17.93;100.00;101323.69;5244926;28;20059;-61
2022/10/17 07:01:11;;;;;;;4.63;2.30;;;17.60;99.90;;;18.14;100.00;101329.22;5245687;28;20044;-58
2022/10/17 07:03:44;;;;;;;4.50;2.83;;;17.70;99.90;;;18.46;100.00;101336.63;5228191;28;20481;-61
2022/10/17 07:06:17;;;;;;;5.40;2.67;;;17.90;99.90;;;18.85;100.00;101324.75;5227787;28;20771;-57
2022/10/17 07:08:51;;;;;;;6.55;2.85;;;18.20;99.90;;;19.09;100.00;101327.59;5244758;28;20051;-60
2022/10/17 07:11:24;;;;;;;3.47;2.53;;;18.50;99.90;;;19.18;100.00;101325.03;5227355;28;20455;-60
2022/10/17 07:13:57;;;;;;;4.15;2.20;;;18.70;99.90;;;19.26;100.00;101333.00;5227633;28;20045;-60
2022/10/17 07:16:31;;;;;;;4.18;2.38;;;18.80;99.90;;;19.30;100.00;101336.56;5245805;28;20040;-60
2022/10/17 07:19:10;;;;;;;5.30;2.17;;;18.80;99.90;;;19.27;100.00;101336.53;5244542;28;20068;-60
2022/10/17 07:21:44;;;;;;;4.03;2.13;;;18.80;99.90;;;19.23;100.00;101344.47;5243869;28;20040;-59
2022/10/17 07:24:17;;;;;;;5.30;2.22;;;18.80;99.90;;;19.21;100.00;101355.88;5227845;28;20048;-58
2022/10/17 07:27:01;;;;;;;4.60;2.35;;;18.80;99.90;;;19.11;100.00;101354.03;5245562;28;20524;-61
2022/10/17 07:29:33;;;;;;;3.10;2.30;;;18.80;99.90;;;19.04;100.00;101350.47;5244224;28;20090;-59
2022/10/17 07:32:21;;;;;;;4.85;1.90;;;18.70;99.90;;;19.06;100.00;101355.75;5244304;28;20454;-59
2022/10/17 07:34:53;;;;;;;4.20;2.00;;;18.70;99.90;;;19.09;100.00;101356.66;5227850;28;20048;-61
2022/10/17 07:37:25;;;;;;;4.10;2.30;;;18.70;99.90;;;19.18;100.00;101347.94;5227591;28;20487;-61
2022/10/17 07:40:00;;;;;;;4.13;2.10;;;18.80;99.90;;;19.28;100.00;101346.25;5243982;28;20049;-60
2022/10/17 07:42:33;;;;;;;4.18;2.38;;;18.90;99.90;;;19.31;100.00;101356.84;5244460;28;20444;-60
2022/10/17 07:45:06;;;;;;;4.88;2.30;;;18.90;99.90;;;19.42;100.00;101356.03;5227578;28;20075;-61
2022/10/17 07:47:40;;;;;;;3.78;2.17;;;19.00;99.90;;;19.77;100.00;101369.56;5244136;28;20044;-61
2022/10/17 07:50:14;;;;;;;3.50;2.20;;;19.20;99.90;;;20.28;100.00;101377.75;5243619;28;20049;-62
2022/10/17 07:52:46;;;;;;;3.25;2.30;;;19.50;99.90;;;20.74;100.00;101373.53;5245288;28;20064;-62
2022/10/17 07:55:18;;;;;;;4.55;1.92;;;19.90;99.90;;;21.35;100.00;101367.41;5245314;28;20059;-62
2022/10/17 07:57:50;;;;;;;3.88;2.08;;;20.40;99.90;;;22.06;100.00;101368.16;5245476;28;20045;-61
2022/10/17 08:00:23;;;;;;;4.32;2.42;;;20.90;99.90;;;22.49;100.00;101363.56;5244750;28;20041;-61
2022/10/17 08:02:56;;;;;;;5.28;2.38;;;21.30;99.90;;;22.61;100.00;101355.53;5245172;28;20098;-63
2022/10/17 08:05:29;;;;;;;3.72;2.10;;;21.60;99.90;;;22.65;100.00;101365.28;5245658;28;20493;-62
2022/10/17 08:08:01;;;;;;;7.03;2.30;;;21.70;99.90;;;22.58;100.00;101368.84;5249503;28;20043;-61
2022/10/17 08:10:33;;;;;;;3.47;1.88;;;21.70;99.90;;;22.54;100.00;101371.53;5249035;28;20044;-62
2022/10/17 08:13:05;;;;;;;4.32;2.13;;;21.70;99.90;;;22.42;100.00;101354.75;5249335;28;20041;-60
2022/10/17 08:15:38;;;;;;;5.30;2.17;;;21.70;99.90;;;22.42;100.00;101360.06;5249414;28;20044;-62
2022/10/17 08:18:12;;;;;;;5.20;2.20;;;21.70;99.90;;;22.55;100.00;101363.53;5249431;28;20651;-63
2022/10/17 08:20:45;;;;;;;3.40;1.95;;;21.80;99.90;;;22.81;100.00;101366.03;5248941;28;20501;-62
2022/10/17 08:23:17;;;;;;;5.30;2.13;;;21.90;99.90;;;22.81;99.81;101367.81;5249142;28;20045;-59
2022/10/17 08:25:49;;;;;;;4.43;1.95;;;22.00;99.90;;;22.65;99.55;101369.69;5249688;28;20049;-57
2022/10/17 08:28:21;;;;;;;5.63;1.90;;;22.00;99.90;;;22.33;100.00;101389.34;5247880;28;20043;-57
2022/10/17 08:30:53;;;;;;;5.05;2.30;;;21.80;99.90;;;21.90;100.00;101384.13;5240655;28;20493;-64
2022/10/17 08:33:26;;;;;;;6.75;2.10;;;21.50;99.90;;;21.61;100.00;101391.28;5249015;28;20051;-64
2022/10/17 08:35:59;;;;;;;3.40;2.03;;;21.20;99.90;;;21.41;100.00;101412.50;5248993;28;20052;-64
2022/10/17 08:38:33;;;;;;;5.75;2.20;;;21.00;99.90;;;21.27;100.00;101401.88;5231132;28;20055;-63
2022/10/17 08:41:13;;;;;;;2.75;1.85;;;20.90;99.90;;;21.20;100.00;101399.22;5239380;28;20047;-65
2022/10/17 08:43:58;;;;;;;3.50;2.20;;;20.80;99.90;;;21.09;100.00;101388.59;5248722;28;20052;-63
2022/10/17 08:46:35;;;;;;;4.32;2.13;;;20.70;99.90;;;21.09;100.00;101391.25;5248869;28;20044;-56
2022/10/17 08:49:16;;;;;;;2.40;1.90;;;20.70;99.90;;;21.11;100.00;101405.38;5248596;28;20055;-57
2022/10/17 08:51:55;;;;;;;3.58;2.47;;;20.70;99.90;;;21.12;100.00;101412.44;5247934;28;20048;-57
2022/10/17 08:54:39;;;;;;;3.70;2.22;;;20.70;99.90;;;21.11;100.00;101422.16;5247255;28;20059;-60
2022/10/17 08:57:14;;;;;;;4.18;2.25;;;20.70;99.90;;;21.10;100.00;101420.38;5243484;28;20497;-63
2022/10/17 08:59:50;;;;;;;;;;;20.70;99.90;;;21.04;100.00;101417.72;5247365;28;20045;-59
2022/10/17 09:02:37;;;;;;;4.88;2.22;;;20.70;99.90;;;21.03;100.00;101423.91;5248551;28;19920;-60
2022/10/17 09:05:29;;;;;;;7.15;2.20;;;20.70;99.90;;;20.86;100.00;101422.97;5248451;28;20109;-62
2022/10/17 09:08:14;;;;;;;4.28;1.90;;;20.50;99.90;;;20.76;100.00;101434.47;5245699;28;20040;-62
2022/10/17 09:10:55;;;;;;;3.15;1.80;;;20.40;99.90;;;20.74;100.00;101425.63;5247459;28;20052;-62
2022/10/17 09:13:52;;;;;;;6.43;2.67;;;20.40;99.90;;;20.76;100.00;101424.75;5248004;28;20400;-62
2022/10/17 09:16:57;;;;;;;5.72;2.33;;;20.40;99.90;;;20.74;100.00;101428.28;5246959;28;20055;-61
2022/10/17 09:19:35;;;;;;;5.93;2.50;;;20.40;99.90;;;20.80;100.00;101426.53;5229414;28;20064;-62
2022/10/17 09:22:16;;;;;;;5.72;2.60;;;20.40;99.90;;;20.89;100.00;101430.06;5247832;28;20404;-61
2022/10/17 09:24:54;;;;;;;4.15;2.47;;;20.50;99.90;;;21.01;100.00;101425.69;5248298;28;20048;-62
2022/10/17 09:27:35;;;;;;;4.90;2.60;;;20.60;99.90;;;21.17;100.00;101436.31;5247955;28;20743;-62
2022/10/17 09:30:36;;;;;;;5.68;2.08;;;20.70;99.90;;;21.30;100.00;101444.31;5247432;28;20057;-61
2022/10/17 09:33:14;;;;;;;4.38;2.10;;;20.80;99.90;;;21.35;100.00;101463.75;5191478;28;20061;-61
2022/10/17 09:35:48;;;;;;;4.53;2.30;;;20.80;99.90;;;21.34;100.00;101461.13;5247966;28;20044;-62
2022/10/17 09:38:37;;;;;;;5.45;2.42;;;20.80;99.90;;;21.35;100.00;101458.47;5247693;28;20528;-61
2022/10/17 09:41:18;;;;;;;4.72;2.13;;;20.90;99.90;;;21.43;100.00;101463.78;5247336;28;20052;-61
2022/10/17 09:43:56;;;;;;;4.00;2.17;;;20.90;99.90;;;21.47;100.00;101452.28;5247684;28;20045;-61
2022/10/17 09:46:35;;;;;;;4.10;2.53;;;21.00;99.90;;;21.54;100.00;101474.41;5247622;28;20412;-61
2022/10/17 09:49:14;;;;;;;3.28;2.50;;;21.00;99.90;;;21.55;100.00;101484.13;5246068;28;20148;-61
2022/10/17 09:51:48;;;;;;;3.28;2.25;;;21.00;99.90;;;21.56;100.00;101493.84;5246901;28;20041;-61
2022/10/17 09:54:26;;;;;;;6.40;2.20;;;21.00;99.90;;;21.51;100.00;101491.16;5229408;28;20060;-61
2022/10/17 09:57:03;;;;;;;6.18;2.30;;;21.00;99.90;;;21.39;100.00;101486.75;5247209;28;20040;-61
2022/10/17 09:59:37;;;;;;;4.03;2.40;;;20.90;99.90;;;21.37;100.00;101472.59;5247302;28;20040;-61
2022/10/17 10:02:17;;;;;;;3.25;1.95;;;20.90;99.90;;;21.38;100.00;101478.78;5245661;28;20044;-61
2022/10/17 10:05:04;;;;;;;3.95;2.15;;;20.90;99.90;;;21.36;100.00;101480.56;5227767;28;20060;-61
2022/10/17 10:07:38;;;;;;;4.18;2.00;;;20.90;99.90;;;21.37;100.00;101471.72;5244836;28;20055;-61
2022/10/17 10:10:27;;;;;;;5.22;2.40;;;20.90;99.90;;;21.39;100.00;101478.81;5243926;28;20044;-61
2022/10/17 10:13:06;;;;;;;5.93;2.17;;;20.90;99.90;;;21.46;100.00;101481.47;5235559;28;20055;-60
2022/10/17 10:15:40;;;;;;;5.13;2.40;;;20.90;99.90;;;21.55;100.00;101478.81;5242594;28;20059;-61
2022/10/17 10:18:33;;;;;;;4.05;2.00;;;21.00;99.90;;;21.68;100.00;101477.94;5242833;28;20109;-62
2022/10/17 10:21:10;;;;;;;2.85;2.00;;;21.10;99.90;;;21.82;100.00;101475.25;5240478;28;20051;-61
2022/10/17 10:23:43;;;;;;;2.83;1.92;;;21.20;99.90;;;21.94;100.00;101484.09;5246912;28;20045;-63
2022/10/17 10:26:23;;;;;;;2.33;1.90;;;21.30;99.90;;;21.96;100.00;101484.09;5247033;28;20053;-57
2022/10/17 10:28:59;;;;;;;3.50;2.20;;;21.40;99.90;;;21.95;100.00;101472.59;5246896;28;20052;-61
2022/10/17 10:31:35;;;;;;;3.70;2.15;;;21.40;99.90;;;21.98;100.00;101486.78;5244650;28;20051;-63
2022/10/17 10:34:20;;;;;;;4.20;2.13;;;21.40;99.90;;;21.94;100.00;101478.78;5242180;28;20041;-61
2022/10/17 10:36:59;;;;;;;4.47;2.25;;;21.40;99.90;;;21.95;100.00;101487.63;5238060;28;20040;-61
2022/10/17 10:39:37;;;;;;;3.80;2.10;;;21.40;99.90;;;22.00;100.00;101485.88;5244434;28;20064;-60
2022/10/17 10:42:27;;;;;;;4.57;2.28;;;21.50;99.90;;;21.95;100.00;101485.88;5241692;28;20049;-61
2022/10/17 10:45:05;;;;;;;4.03;2.40;;;21.50;99.90;;;21.97;100.00;101490.28;5246165;28;20048;-60
2022/10/17 10:47:37;;;;;;;7.45;2.13;;;21.40;99.90;;;21.93;100.00;101484.13;5245685;28;20127;-54